sensor_id;sensor_type;location;lat;lon;timestamp;P1;durP1;ratioP1;P2;durP2;ratioP2
8331;SDS011;4203;48.144;14.118;2023-04-16T00:01:39;12.07;;;10.77;;
8331;SDS011;4203;48.144;14.118;2023-04-16T00:04:06;11.80;;;10.60;;
8331;SDS011;4203;48.144;14.118;2023-04-16T00:06:33;12.50;;;11.17;;
8331;SDS011;4203;48.144;14.118;2023-04-16T00:09:02;11.87;;;10.60;;
8331;SDS011;4203;48.144;14.118;2023-04-16T00:11:30;11.17;;;9.93;;
8331;SDS011;4203;48.144;14.118;2023-04-16T00:13:57;12.27;;;11.07;;
8331;SDS011;4203;48.144;14.118;2023-04-16T00:16:24;11.17;;;10.03;;
8331;SDS011;4203;48.144;14.118;2023-04-16T00:18:51;11.30;;;10.10;;
8331;SDS011;4203;48.144;14.118;2023-04-16T00:21:20;11.57;;;10.30;;
8331;SDS011;4203;48.144;14.118;2023-04-16T00:23:47;11.77;;;10.60;;
8331;SDS011;4203;48.144;14.118;2023-04-16T00:26:15;14.20;;;11.37;;
8331;SDS011;4203;48.144;14.118;2023-04-16T00:28:43;12.50;;;10.53;;
8331;SDS011;4203;48.144;14.118;2023-04-16T00:31:10;12.63;;;10.93;;
8331;SDS011;4203;48.144;14.118;2023-04-16T00:33:37;11.83;;;10.57;;
8331;SDS011;4203;48.144;14.118;2023-04-16T00:36:04;12.50;;;10.17;;
8331;SDS011;4203;48.144;14.118;2023-04-16T00:38:32;10.47;;;9.33;;
8331;SDS011;4203;48.144;14.118;2023-04-16T00:41:00;11.00;;;9.90;;
8331;SDS011;4203;48.144;14.118;2023-04-16T00:43:29;10.90;;;9.53;;
8331;SDS011;4203;48.144;14.118;2023-04-16T00:45:56;10.33;;;9.23;;
8331;SDS011;4203;48.144;14.118;2023-04-16T00:48:23;10.37;;;9.37;;
8331;SDS011;4203;48.144;14.118;2023-04-16T00:50:52;12.13;;;9.83;;
8331;SDS011;4203;48.144;14.118;2023-04-16T00:53:20;10.60;;;9.50;;
8331;SDS011;4203;48.144;14.118;2023-04-16T00:55:47;10.57;;;9.23;;
8331;SDS011;4203;48.144;14.118;2023-04-16T00:58:15;10.40;;;9.33;;
8331;SDS011;4203;48.144;14.118;2023-04-16T01:00:49;10.57;;;9.47;;
8331;SDS011;4203;48.144;14.118;2023-04-16T01:03:17;11.60;;;9.87;;
8331;SDS011;4203;48.144;14.118;2023-04-16T01:05:44;10.87;;;9.53;;
8331;SDS011;4203;48.144;14.118;2023-04-16T01:08:14;10.20;;;9.20;;
8331;SDS011;4203;48.144;14.118;2023-04-16T01:10:42;11.60;;;9.47;;
8331;SDS011;4203;48.144;14.118;2023-04-16T01:13:09;9.97;;;9.03;;
8331;SDS011;4203;48.144;14.118;2023-04-16T01:15:37;9.90;;;9.00;;
8331;SDS011;4203;48.144;14.118;2023-04-16T01:18:13;10.37;;;9.07;;
8331;SDS011;4203;48.144;14.118;2023-04-16T01:20:42;11.13;;;9.97;;
8331;SDS011;4203;48.144;14.118;2023-04-16T01:23:09;10.83;;;9.50;;
8331;SDS011;4203;48.144;14.118;2023-04-16T01:25:37;10.77;;;9.27;;
8331;SDS011;4203;48.144;14.118;2023-04-16T01:28:04;10.47;;;9.47;;
8331;SDS011;4203;48.144;14.118;2023-04-16T01:30:33;11.10;;;9.10;;
8331;SDS011;4203;48.144;14.118;2023-04-16T01:33:01;9.40;;;8.50;;
8331;SDS011;4203;48.144;14.118;2023-04-16T01:35:28;9.70;;;8.57;;
8331;SDS011;4203;48.144;14.118;2023-04-16T01:37:56;11.33;;;8.60;;
8331;SDS011;4203;48.144;14.118;2023-04-16T01:40:23;9.30;;;8.40;;
8331;SDS011;4203;48.144;14.118;2023-04-16T01:42:51;8.30;;;7.60;;
8331;SDS011;4203;48.144;14.118;2023-04-16T01:45:18;10.00;;;9.00;;
8331;SDS011;4203;48.144;14.118;2023-04-16T01:47:45;8.30;;;7.57;;
8331;SDS011;4203;48.144;14.118;2023-04-16T01:50:14;8.70;;;7.80;;
8331;SDS011;4203;48.144;14.118;2023-04-16T01:52:41;9.03;;;8.13;;
8331;SDS011;4203;48.144;14.118;2023-04-16T01:55:10;7.97;;;7.20;;
8331;SDS011;4203;48.144;14.118;2023-04-16T01:57:37;8.43;;;7.60;;
8331;SDS011;4203;48.144;14.118;2023-04-16T02:00:05;6.67;;;6.07;;
8331;SDS011;4203;48.144;14.118;2023-04-16T02:02:34;7.50;;;6.80;;
8331;SDS011;4203;48.144;14.118;2023-04-16T02:05:03;7.13;;;6.43;;
8331;SDS011;4203;48.144;14.118;2023-04-16T02:07:31;6.63;;;6.03;;
8331;SDS011;4203;48.144;14.118;2023-04-16T02:09:58;6.60;;;6.00;;
8331;SDS011;4203;48.144;14.118;2023-04-16T02:12:26;6.50;;;6.00;;
8331;SDS011;4203;48.144;14.118;2023-04-16T02:14:54;5.77;;;5.37;;
8331;SDS011;4203;48.144;14.118;2023-04-16T02:17:21;6.23;;;5.73;;
8331;SDS011;4203;48.144;14.118;2023-04-16T02:19:48;6.10;;;5.60;;
8331;SDS011;4203;48.144;14.118;2023-04-16T02:22:16;6.27;;;5.67;;
8331;SDS011;4203;48.144;14.118;2023-04-16T02:24:43;6.07;;;5.53;;
8331;SDS011;4203;48.144;14.118;2023-04-16T02:27:10;6.40;;;5.90;;
8331;SDS011;4203;48.144;14.118;2023-04-16T02:29:39;5.87;;;5.37;;
8331;SDS011;4203;48.144;14.118;2023-04-16T02:32:06;6.63;;;6.03;;
8331;SDS011;4203;48.144;14.118;2023-04-16T02:34:33;6.73;;;6.13;;
8331;SDS011;4203;48.144;14.118;2023-04-16T02:37:00;6.87;;;6.23;;
8331;SDS011;4203;48.144;14.118;2023-04-16T02:39:27;7.23;;;6.63;;
8331;SDS011;4203;48.144;14.118;2023-04-16T02:41:55;7.30;;;6.37;;
8331;SDS011;4203;48.144;14.118;2023-04-16T02:44:23;7.10;;;6.40;;
8331;SDS011;4203;48.144;14.118;2023-04-16T02:46:52;7.80;;;7.10;;
8331;SDS011;4203;48.144;14.118;2023-04-16T02:49:19;7.87;;;7.17;;
8331;SDS011;4203;48.144;14.118;2023-04-16T02:51:46;8.30;;;7.50;;
8331;SDS011;4203;48.144;14.118;2023-04-16T02:54:13;8.20;;;7.33;;
8331;SDS011;4203;48.144;14.118;2023-04-16T02:56:41;8.03;;;7.23;;
8331;SDS011;4203;48.144;14.118;2023-04-16T02:59:08;9.13;;;7.67;;
8331;SDS011;4203;48.144;14.118;2023-04-16T03:01:36;9.37;;;8.47;;
8331;SDS011;4203;48.144;14.118;2023-04-16T03:04:05;7.80;;;7.00;;
8331;SDS011;4203;48.144;14.118;2023-04-16T03:06:32;8.70;;;7.90;;
8331;SDS011;4203;48.144;14.118;2023-04-16T03:08:59;8.70;;;7.80;;
8331;SDS011;4203;48.144;14.118;2023-04-16T03:11:27;8.43;;;7.53;;
8331;SDS011;4203;48.144;14.118;2023-04-16T03:13:55;7.97;;;7.27;;
8331;SDS011;4203;48.144;14.118;2023-04-16T03:16:22;7.80;;;7.00;;
8331;SDS011;4203;48.144;14.118;2023-04-16T03:18:49;7.90;;;7.10;;
8331;SDS011;4203;48.144;14.118;2023-04-16T03:21:18;7.97;;;7.17;;
8331;SDS011;4203;48.144;14.118;2023-04-16T03:23:45;8.33;;;7.53;;
8331;SDS011;4203;48.144;14.118;2023-04-16T03:26:13;7.77;;;7.00;;
8331;SDS011;4203;48.144;14.118;2023-04-16T03:28:40;7.60;;;6.77;;
8331;SDS011;4203;48.144;14.118;2023-04-16T03:31:08;7.93;;;7.13;;
8331;SDS011;4203;48.144;14.118;2023-04-16T03:33:35;7.10;;;6.50;;
8331;SDS011;4203;48.144;14.118;2023-04-16T03:36:03;7.60;;;6.80;;
8331;SDS011;4203;48.144;14.118;2023-04-16T03:38:38;7.17;;;6.43;;
8331;SDS011;4203;48.144;14.118;2023-04-16T03:41:05;7.63;;;7.00;;
8331;SDS011;4203;48.144;14.118;2023-04-16T03:43:33;8.03;;;6.80;;
8331;SDS011;4203;48.144;14.118;2023-04-16T03:46:00;10.97;;;7.63;;
8331;SDS011;4203;48.144;14.118;2023-04-16T03:48:27;7.83;;;7.03;;
8331;SDS011;4203;48.144;14.118;2023-04-16T03:50:54;7.77;;;7.07;;
8331;SDS011;4203;48.144;14.118;2023-04-16T03:53:22;8.10;;;7.17;;
8331;SDS011;4203;48.144;14.118;2023-04-16T03:55:50;7.40;;;6.70;;
8331;SDS011;4203;48.144;14.118;2023-04-16T03:58:17;8.07;;;6.90;;
8331;SDS011;4203;48.144;14.118;2023-04-16T04:00:45;7.20;;;6.33;;
8331;SDS011;4203;48.144;14.118;2023-04-16T04:03:12;6.90;;;6.23;;
8331;SDS011;4203;48.144;14.118;2023-04-16T04:05:41;7.07;;;6.47;;
8331;SDS011;4203;48.144;14.118;2023-04-16T04:08:09;7.80;;;7.00;;
8331;SDS011;4203;48.144;14.118;2023-04-16T04:10:37;7.27;;;6.57;;
8331;SDS011;4203;48.144;14.118;2023-04-16T04:13:06;6.83;;;6.23;;
8331;SDS011;4203;48.144;14.118;2023-04-16T04:15:33;6.90;;;6.30;;
8331;SDS011;4203;48.144;14.118;2023-04-16T04:18:00;7.90;;;7.20;;
8331;SDS011;4203;48.144;14.118;2023-04-16T04:20:28;7.33;;;6.57;;
8331;SDS011;4203;48.144;14.118;2023-04-16T04:22:55;6.80;;;6.17;;
8331;SDS011;4203;48.144;14.118;2023-04-16T04:25:22;6.80;;;6.20;;
8331;SDS011;4203;48.144;14.118;2023-04-16T04:27:49;6.70;;;6.10;;
8331;SDS011;4203;48.144;14.118;2023-04-16T04:30:18;6.97;;;6.27;;
8331;SDS011;4203;48.144;14.118;2023-04-16T04:32:45;6.70;;;6.10;;
8331;SDS011;4203;48.144;14.118;2023-04-16T04:35:12;6.77;;;6.17;;
8331;SDS011;4203;48.144;14.118;2023-04-16T04:37:39;5.80;;;5.33;;
8331;SDS011;4203;48.144;14.118;2023-04-16T04:40:07;6.50;;;5.90;;
8331;SDS011;4203;48.144;14.118;2023-04-16T04:42:35;8.03;;;6.27;;
8331;SDS011;4203;48.144;14.118;2023-04-16T04:45:03;6.17;;;5.60;;
8331;SDS011;4203;48.144;14.118;2023-04-16T04:47:32;6.27;;;5.67;;
8331;SDS011;4203;48.144;14.118;2023-04-16T04:49:59;5.50;;;5.00;;
8331;SDS011;4203;48.144;14.118;2023-04-16T04:52:27;5.37;;;4.90;;
8331;SDS011;4203;48.144;14.118;2023-04-16T04:54:55;5.27;;;4.87;;
8331;SDS011;4203;48.144;14.118;2023-04-16T04:57:22;5.60;;;4.87;;
8331;SDS011;4203;48.144;14.118;2023-04-16T04:59:49;4.63;;;4.33;;
8331;SDS011;4203;48.144;14.118;2023-04-16T05:02:16;4.57;;;4.27;;
8331;SDS011;4203;48.144;14.118;2023-04-16T05:04:45;4.27;;;3.97;;
8331;SDS011;4203;48.144;14.118;2023-04-16T05:07:12;4.20;;;3.90;;
8331;SDS011;4203;48.144;14.118;2023-04-16T05:09:39;3.97;;;3.50;;
8331;SDS011;4203;48.144;14.118;2023-04-16T05:12:06;4.17;;;3.80;;
8331;SDS011;4203;48.144;14.118;2023-04-16T05:14:33;4.77;;;3.73;;
8331;SDS011;4203;48.144;14.118;2023-04-16T05:17:01;3.50;;;3.30;;
8331;SDS011;4203;48.144;14.118;2023-04-16T05:19:28;4.30;;;3.90;;
8331;SDS011;4203;48.144;14.118;2023-04-16T05:21:58;3.60;;;3.30;;
8331;SDS011;4203;48.144;14.118;2023-04-16T05:24:26;3.97;;;3.77;;
8331;SDS011;4203;48.144;14.118;2023-04-16T05:26:53;3.80;;;3.50;;
8331;SDS011;4203;48.144;14.118;2023-04-16T05:29:21;3.30;;;3.00;;
8331;SDS011;4203;48.144;14.118;2023-04-16T05:31:49;3.23;;;3.03;;
8331;SDS011;4203;48.144;14.118;2023-04-16T05:34:16;3.10;;;2.90;;
8331;SDS011;4203;48.144;14.118;2023-04-16T05:36:43;3.00;;;2.80;;
8331;SDS011;4203;48.144;14.118;2023-04-16T05:39:12;2.93;;;2.73;;
8331;SDS011;4203;48.144;14.118;2023-04-16T05:41:39;2.70;;;2.60;;
8331;SDS011;4203;48.144;14.118;2023-04-16T05:44:07;3.20;;;3.00;;
8331;SDS011;4203;48.144;14.118;2023-04-16T05:46:34;2.67;;;2.47;;
8331;SDS011;4203;48.144;14.118;2023-04-16T05:49:01;2.43;;;2.33;;
8331;SDS011;4203;48.144;14.118;2023-04-16T05:51:28;2.53;;;2.33;;
8331;SDS011;4203;48.144;14.118;2023-04-16T05:53:56;2.17;;;2.10;;
8331;SDS011;4203;48.144;14.118;2023-04-16T05:56:24;2.00;;;1.90;;
8331;SDS011;4203;48.144;14.118;2023-04-16T05:58:52;2.43;;;2.33;;
8331;SDS011;4203;48.144;14.118;2023-04-16T06:01:19;2.00;;;1.90;;
8331;SDS011;4203;48.144;14.118;2023-04-16T06:03:47;2.03;;;1.93;;
8331;SDS011;4203;48.144;14.118;2023-04-16T06:06:15;2.40;;;2.20;;
8331;SDS011;4203;48.144;14.118;2023-04-16T06:08:42;2.90;;;2.27;;
8331;SDS011;4203;48.144;14.118;2023-04-16T06:11:10;2.20;;;2.00;;
8331;SDS011;4203;48.144;14.118;2023-04-16T06:13:39;2.07;;;1.97;;
8331;SDS011;4203;48.144;14.118;2023-04-16T06:16:06;2.90;;;2.13;;
8331;SDS011;4203;48.144;14.118;2023-04-16T06:18:33;2.27;;;2.17;;
8331;SDS011;4203;48.144;14.118;2023-04-16T06:21:00;2.40;;;2.30;;
8331;SDS011;4203;48.144;14.118;2023-04-16T06:23:28;2.30;;;2.20;;
8331;SDS011;4203;48.144;14.118;2023-04-16T06:25:55;2.70;;;2.57;;
8331;SDS011;4203;48.144;14.118;2023-04-16T06:28:23;3.10;;;2.90;;
8331;SDS011;4203;48.144;14.118;2023-04-16T06:30:51;2.87;;;2.77;;
8331;SDS011;4203;48.144;14.118;2023-04-16T06:33:18;3.13;;;2.93;;
8331;SDS011;4203;48.144;14.118;2023-04-16T06:35:46;3.67;;;3.40;;
8331;SDS011;4203;48.144;14.118;2023-04-16T06:38:13;3.20;;;3.00;;
8331;SDS011;4203;48.144;14.118;2023-04-16T06:40:40;3.57;;;3.27;;
8331;SDS011;4203;48.144;14.118;2023-04-16T06:43:08;3.60;;;3.30;;
8331;SDS011;4203;48.144;14.118;2023-04-16T06:45:35;3.60;;;3.40;;
8331;SDS011;4203;48.144;14.118;2023-04-16T06:48:04;4.27;;;3.87;;
8331;SDS011;4203;48.144;14.118;2023-04-16T06:50:31;3.87;;;3.57;;
8331;SDS011;4203;48.144;14.118;2023-04-16T06:52:58;3.93;;;3.73;;
8331;SDS011;4203;48.144;14.118;2023-04-16T06:55:26;3.40;;;3.20;;
8331;SDS011;4203;48.144;14.118;2023-04-16T06:57:53;3.50;;;3.30;;
8331;SDS011;4203;48.144;14.118;2023-04-16T07:00:20;3.40;;;3.20;;
8331;SDS011;4203;48.144;14.118;2023-04-16T07:02:47;3.73;;;3.43;;
8331;SDS011;4203;48.144;14.118;2023-04-16T07:05:16;3.83;;;3.53;;
8331;SDS011;4203;48.144;14.118;2023-04-16T07:07:43;3.53;;;3.33;;
8331;SDS011;4203;48.144;14.118;2023-04-16T07:10:10;3.70;;;3.40;;
8331;SDS011;4203;48.144;14.118;2023-04-16T07:12:37;3.63;;;3.43;;
8331;SDS011;4203;48.144;14.118;2023-04-16T07:15:05;3.37;;;3.17;;
8331;SDS011;4203;48.144;14.118;2023-04-16T07:17:33;4.10;;;3.70;;
8331;SDS011;4203;48.144;14.118;2023-04-16T07:20:00;3.97;;;3.73;;
8331;SDS011;4203;48.144;14.118;2023-04-16T07:22:29;4.03;;;3.73;;
8331;SDS011;4203;48.144;14.118;2023-04-16T07:24:56;4.23;;;3.87;;
8331;SDS011;4203;48.144;14.118;2023-04-16T07:27:23;5.07;;;4.67;;
8331;SDS011;4203;48.144;14.118;2023-04-16T07:29:51;4.20;;;3.90;;
8331;SDS011;4203;48.144;14.118;2023-04-16T07:32:20;5.47;;;4.70;;
8331;SDS011;4203;48.144;14.118;2023-04-16T07:34:47;4.60;;;4.30;;
8331;SDS011;4203;48.144;14.118;2023-04-16T07:37:15;4.77;;;4.43;;
8331;SDS011;4203;48.144;14.118;2023-04-16T07:39:43;4.97;;;4.57;;
8331;SDS011;4203;48.144;14.118;2023-04-16T07:42:11;5.07;;;4.67;;
8331;SDS011;4203;48.144;14.118;2023-04-16T07:44:39;5.10;;;4.70;;
8331;SDS011;4203;48.144;14.118;2023-04-16T07:47:06;4.63;;;4.33;;
8331;SDS011;4203;48.144;14.118;2023-04-16T07:49:33;4.57;;;4.10;;
8331;SDS011;4203;48.144;14.118;2023-04-16T07:52:02;4.40;;;4.10;;
8331;SDS011;4203;48.144;14.118;2023-04-16T07:54:29;3.93;;;3.73;;
8331;SDS011;4203;48.144;14.118;2023-04-16T07:56:58;3.73;;;3.53;;
8331;SDS011;4203;48.144;14.118;2023-04-16T07:59:25;4.10;;;3.90;;
8331;SDS011;4203;48.144;14.118;2023-04-16T08:01:52;8.47;;;3.77;;
8331;SDS011;4203;48.144;14.118;2023-04-16T08:04:20;3.70;;;3.50;;
8331;SDS011;4203;48.144;14.118;2023-04-16T08:06:48;3.77;;;3.47;;
8331;SDS011;4203;48.144;14.118;2023-04-16T08:09:16;3.50;;;3.30;;
8331;SDS011;4203;48.144;14.118;2023-04-16T08:11:44;3.50;;;3.30;;
8331;SDS011;4203;48.144;14.118;2023-04-16T08:14:14;3.63;;;3.43;;
8331;SDS011;4203;48.144;14.118;2023-04-16T08:16:42;3.57;;;3.37;;
8331;SDS011;4203;48.144;14.118;2023-04-16T08:19:09;3.73;;;3.50;;
8331;SDS011;4203;48.144;14.118;2023-04-16T08:21:36;3.40;;;3.20;;
8331;SDS011;4203;48.144;14.118;2023-04-16T08:24:04;3.70;;;3.50;;
8331;SDS011;4203;48.144;14.118;2023-04-16T08:26:31;4.17;;;3.83;;
8331;SDS011;4203;48.144;14.118;2023-04-16T08:28:58;3.40;;;3.10;;
8331;SDS011;4203;48.144;14.118;2023-04-16T08:31:27;3.67;;;3.43;;
8331;SDS011;4203;48.144;14.118;2023-04-16T08:33:54;3.93;;;3.63;;
8331;SDS011;4203;48.144;14.118;2023-04-16T08:36:21;3.90;;;3.60;;
8331;SDS011;4203;48.144;14.118;2023-04-16T08:38:49;3.93;;;3.63;;
8331;SDS011;4203;48.144;14.118;2023-04-16T08:44:40;4.20;;;3.90;;
8331;SDS011;4203;48.144;14.118;2023-04-16T08:47:14;3.70;;;3.47;;
8331;SDS011;4203;48.144;14.118;2023-04-16T08:49:42;3.67;;;3.47;;
8331;SDS011;4203;48.144;14.118;2023-04-16T08:52:13;3.73;;;3.53;;
8331;SDS011;4203;48.144;14.118;2023-04-16T08:54:45;4.17;;;3.77;;
8331;SDS011;4203;48.144;14.118;2023-04-16T08:57:18;3.70;;;3.50;;
8331;SDS011;4203;48.144;14.118;2023-04-16T08:59:47;3.80;;;3.60;;
8331;SDS011;4203;48.144;14.118;2023-04-16T09:02:18;3.83;;;3.53;;
8331;SDS011;4203;48.144;14.118;2023-04-16T09:04:46;3.70;;;3.50;;
8331;SDS011;4203;48.144;14.118;2023-04-16T09:07:16;3.83;;;3.57;;
8331;SDS011;4203;48.144;14.118;2023-04-16T09:09:45;3.27;;;3.13;;
8331;SDS011;4203;48.144;14.118;2023-04-16T09:12:15;3.53;;;3.33;;
8331;SDS011;4203;48.144;14.118;2023-04-16T09:14:45;3.47;;;3.27;;
8331;SDS011;4203;48.144;14.118;2023-04-16T09:17:14;3.70;;;3.50;;
8331;SDS011;4203;48.144;14.118;2023-04-16T09:19:43;3.90;;;3.60;;
8331;SDS011;4203;48.144;14.118;2023-04-16T09:22:11;3.40;;;3.20;;
8331;SDS011;4203;48.144;14.118;2023-04-16T09:24:38;2.93;;;2.83;;
8331;SDS011;4203;48.144;14.118;2023-04-16T09:27:06;3.77;;;3.57;;
8331;SDS011;4203;48.144;14.118;2023-04-16T09:29:34;3.60;;;3.40;;
8331;SDS011;4203;48.144;14.118;2023-04-16T09:32:03;3.60;;;3.40;;
8331;SDS011;4203;48.144;14.118;2023-04-16T09:37:31;2.92;;;2.83;;
8331;SDS011;4203;48.144;14.118;2023-04-16T09:39:59;3.00;;;2.90;;
8331;SDS011;4203;48.144;14.118;2023-04-16T09:42:29;3.80;;;3.10;;
8331;SDS011;4203;48.144;14.118;2023-04-16T09:44:57;3.57;;;3.37;;
8331;SDS011;4203;48.144;14.118;2023-04-16T09:47:25;3.40;;;3.20;;
8331;SDS011;4203;48.144;14.118;2023-04-16T09:50:04;3.53;;;3.33;;
8331;SDS011;4203;48.144;14.118;2023-04-16T09:52:35;3.07;;;2.93;;
8331;SDS011;4203;48.144;14.118;2023-04-16T09:55:02;3.83;;;3.63;;
8331;SDS011;4203;48.144;14.118;2023-04-16T09:57:30;3.50;;;3.30;;
8331;SDS011;4203;48.144;14.118;2023-04-16T10:00:00;3.20;;;3.10;;
8331;SDS011;4203;48.144;14.118;2023-04-16T10:02:30;3.20;;;3.00;;
8331;SDS011;4203;48.144;14.118;2023-04-16T10:05:00;3.60;;;3.40;;
8331;SDS011;4203;48.144;14.118;2023-04-16T10:07:28;3.15;;;3.00;;
8331;SDS011;4203;48.144;14.118;2023-04-16T10:10:00;3.05;;;2.95;;
8331;SDS011;4203;48.144;14.118;2023-04-16T10:12:29;3.17;;;2.97;;
8331;SDS011;4203;48.144;14.118;2023-04-16T10:14:57;2.90;;;2.80;;
8331;SDS011;4203;48.144;14.118;2023-04-16T10:17:25;3.30;;;3.10;;
8331;SDS011;4203;48.144;14.118;2023-04-16T10:19:54;2.80;;;2.70;;
8331;SDS011;4203;48.144;14.118;2023-04-16T10:22:23;3.10;;;2.93;;
8331;SDS011;4203;48.144;14.118;2023-04-16T10:24:51;3.10;;;2.90;;
8331;SDS011;4203;48.144;14.118;2023-04-16T10:27:21;3.00;;;2.90;;
8331;SDS011;4203;48.144;14.118;2023-04-16T10:29:48;3.03;;;2.93;;
8331;SDS011;4203;48.144;14.118;2023-04-16T10:32:16;2.83;;;2.73;;
8331;SDS011;4203;48.144;14.118;2023-04-16T10:34:45;2.60;;;2.50;;
8331;SDS011;4203;48.144;14.118;2023-04-16T10:37:13;2.97;;;2.87;;
8331;SDS011;4203;48.144;14.118;2023-04-16T10:39:42;3.20;;;3.00;;
8331;SDS011;4203;48.144;14.118;2023-04-16T10:42:11;3.13;;;2.93;;
8331;SDS011;4203;48.144;14.118;2023-04-16T10:44:40;3.13;;;2.97;;
8331;SDS011;4203;48.144;14.118;2023-04-16T10:47:11;3.17;;;2.97;;
8331;SDS011;4203;48.144;14.118;2023-04-16T10:49:39;2.80;;;2.70;;
8331;SDS011;4203;48.144;14.118;2023-04-16T10:52:07;2.93;;;2.73;;
8331;SDS011;4203;48.144;14.118;2023-04-16T10:54:36;2.80;;;2.70;;
8331;SDS011;4203;48.144;14.118;2023-04-16T10:57:04;3.33;;;3.03;;
8331;SDS011;4203;48.144;14.118;2023-04-16T10:59:34;3.07;;;2.97;;
8331;SDS011;4203;48.144;14.118;2023-04-16T11:02:06;2.90;;;2.80;;
8331;SDS011;4203;48.144;14.118;2023-04-16T11:04:37;2.80;;;2.60;;
8331;SDS011;4203;48.144;14.118;2023-04-16T11:07:05;3.00;;;2.80;;
8331;SDS011;4203;48.144;14.118;2023-04-16T11:09:48;3.03;;;2.83;;
8331;SDS011;4203;48.144;14.118;2023-04-16T11:12:18;2.70;;;2.60;;
8331;SDS011;4203;48.144;14.118;2023-04-16T11:14:47;2.75;;;2.53;;
8331;SDS011;4203;48.144;14.118;2023-04-16T11:17:17;2.63;;;2.53;;
8331;SDS011;4203;48.144;14.118;2023-04-16T11:19:45;2.90;;;2.70;;
8331;SDS011;4203;48.144;14.118;2023-04-16T11:22:14;2.97;;;2.87;;
8331;SDS011;4203;48.144;14.118;2023-04-16T11:24:42;3.60;;;3.40;;
8331;SDS011;4203;48.144;14.118;2023-04-16T11:27:11;3.37;;;3.17;;
8331;SDS011;4203;48.144;14.118;2023-04-16T11:29:39;3.40;;;3.13;;
8331;SDS011;4203;48.144;14.118;2023-04-16T11:32:09;3.20;;;3.10;;
8331;SDS011;4203;48.144;14.118;2023-04-16T11:34:45;3.27;;;3.07;;
8331;SDS011;4203;48.144;14.118;2023-04-16T11:37:12;3.43;;;3.13;;
8331;SDS011;4203;48.144;14.118;2023-04-16T11:39:48;3.40;;;3.20;;
8331;SDS011;4203;48.144;14.118;2023-04-16T11:42:20;3.20;;;3.00;;
8331;SDS011;4203;48.144;14.118;2023-04-16T11:44:51;3.50;;;3.30;;
8331;SDS011;4203;48.144;14.118;2023-04-16T11:47:20;3.90;;;3.60;;
8331;SDS011;4203;48.144;14.118;2023-04-16T11:49:49;3.63;;;3.33;;
8331;SDS011;4203;48.144;14.118;2023-04-16T11:52:26;3.50;;;3.30;;
8331;SDS011;4203;48.144;14.118;2023-04-16T11:54:54;3.23;;;3.03;;
8331;SDS011;4203;48.144;14.118;2023-04-16T11:57:26;3.47;;;3.27;;
8331;SDS011;4203;48.144;14.118;2023-04-16T11:59:54;3.73;;;3.53;;
8331;SDS011;4203;48.144;14.118;2023-04-16T12:07:54;3.87;;;3.57;;
8331;SDS011;4203;48.144;14.118;2023-04-16T12:10:22;4.60;;;4.27;;
8331;SDS011;4203;48.144;14.118;2023-04-16T12:12:50;4.23;;;3.43;;
8331;SDS011;4203;48.144;14.118;2023-04-16T12:15:17;3.43;;;3.23;;
8331;SDS011;4203;48.144;14.118;2023-04-16T12:17:44;3.70;;;3.50;;
8331;SDS011;4203;48.144;14.118;2023-04-16T12:20:12;3.50;;;3.30;;
8331;SDS011;4203;48.144;14.118;2023-04-16T12:22:44;3.43;;;3.23;;
8331;SDS011;4203;48.144;14.118;2023-04-16T12:25:13;3.13;;;2.97;;
8331;SDS011;4203;48.144;14.118;2023-04-16T12:27:42;3.67;;;3.47;;
8331;SDS011;4203;48.144;14.118;2023-04-16T12:30:22;3.93;;;3.63;;
8331;SDS011;4203;48.144;14.118;2023-04-16T12:32:52;3.90;;;3.60;;
8331;SDS011;4203;48.144;14.118;2023-04-16T12:35:38;3.70;;;3.50;;
8331;SDS011;4203;48.144;14.118;2023-04-16T12:38:09;3.27;;;3.07;;
8331;SDS011;4203;48.144;14.118;2023-04-16T12:40:39;3.67;;;3.47;;
8331;SDS011;4203;48.144;14.118;2023-04-16T12:43:06;3.57;;;3.37;;
8331;SDS011;4203;48.144;14.118;2023-04-16T12:45:34;3.70;;;3.40;;
8331;SDS011;4203;48.144;14.118;2023-04-16T12:48:02;3.30;;;3.20;;
8331;SDS011;4203;48.144;14.118;2023-04-16T12:50:29;3.70;;;3.40;;
8331;SDS011;4203;48.144;14.118;2023-04-16T12:52:57;3.97;;;3.77;;
8331;SDS011;4203;48.144;14.118;2023-04-16T12:55:26;3.60;;;3.30;;
8331;SDS011;4203;48.144;14.118;2023-04-16T12:57:53;3.47;;;3.30;;
8331;SDS011;4203;48.144;14.118;2023-04-16T13:00:20;4.25;;;3.78;;
8331;SDS011;4203;48.144;14.118;2023-04-16T13:02:48;3.92;;;3.72;;
8331;SDS011;4203;48.144;14.118;2023-04-16T13:05:15;3.33;;;3.13;;
8331;SDS011;4203;48.144;14.118;2023-04-16T13:07:43;3.50;;;3.30;;
8331;SDS011;4203;48.144;14.118;2023-04-16T13:10:10;5.10;;;3.50;;
8331;SDS011;4203;48.144;14.118;2023-04-16T13:12:43;4.30;;;4.00;;
8331;SDS011;4203;48.144;14.118;2023-04-16T13:15:11;3.92;;;3.63;;
8331;SDS011;4203;48.144;14.118;2023-04-16T15:22:06;4.20;;;4.00;;
8331;SDS011;4203;48.144;14.118;2023-04-16T15:24:33;3.75;;;3.53;;
8331;SDS011;4203;48.144;14.118;2023-04-16T15:27:00;3.70;;;3.50;;
8331;SDS011;4203;48.144;14.118;2023-04-16T15:29:27;2.95;;;2.85;;
8331;SDS011;4203;48.144;14.118;2023-04-16T15:31:55;3.50;;;3.20;;
8331;SDS011;4203;48.144;14.118;2023-04-16T15:34:25;3.50;;;3.30;;
8331;SDS011;4203;48.144;14.118;2023-04-16T15:37:10;3.10;;;2.90;;
8331;SDS011;4203;48.144;14.118;2023-04-16T15:39:46;3.25;;;3.05;;
8331;SDS011;4203;48.144;14.118;2023-04-16T15:42:21;3.50;;;3.30;;
8331;SDS011;4203;48.144;14.118;2023-04-16T15:44:51;3.55;;;3.22;;
8331;SDS011;4203;48.144;14.118;2023-04-16T15:47:20;4.75;;;3.65;;
8331;SDS011;4203;48.144;14.118;2023-04-16T15:49:54;4.00;;;3.53;;
8331;SDS011;4203;48.144;14.118;2023-04-16T15:52:25;3.45;;;3.20;;
8331;SDS011;4203;48.144;14.118;2023-04-16T15:54:55;8.80;;;3.70;;
8331;SDS011;4203;48.144;14.118;2023-04-16T15:57:24;3.30;;;3.10;;
8331;SDS011;4203;48.144;14.118;2023-04-16T15:59:53;3.20;;;3.00;;
8331;SDS011;4203;48.144;14.118;2023-04-16T16:02:23;8.95;;;3.78;;
8331;SDS011;4203;48.144;14.118;2023-04-16T16:04:55;2.90;;;2.80;;
8331;SDS011;4203;48.144;14.118;2023-04-16T16:07:27;4.05;;;3.55;;
8331;SDS011;4203;48.144;14.118;2023-04-16T16:09:56;3.42;;;3.22;;
8331;SDS011;4203;48.144;14.118;2023-04-16T16:12:32;3.65;;;3.35;;
8331;SDS011;4203;48.144;14.118;2023-04-16T16:15:04;3.75;;;3.50;;
8331;SDS011;4203;48.144;14.118;2023-04-16T16:17:40;3.95;;;3.75;;
8331;SDS011;4203;48.144;14.118;2023-04-16T16:20:12;3.95;;;3.35;;
8331;SDS011;4203;48.144;14.118;2023-04-16T16:22:49;3.60;;;3.30;;
8331;SDS011;4203;48.144;14.118;2023-04-16T16:25:19;3.78;;;3.58;;
8331;SDS011;4203;48.144;14.118;2023-04-16T16:27:48;4.30;;;3.90;;
8331;SDS011;4203;48.144;14.118;2023-04-16T16:30:17;3.47;;;3.17;;
8331;SDS011;4203;48.144;14.118;2023-04-16T16:32:51;3.90;;;3.60;;
8331;SDS011;4203;48.144;14.118;2023-04-16T16:35:21;3.80;;;3.60;;
8331;SDS011;4203;48.144;14.118;2023-04-16T16:37:54;3.38;;;3.17;;
8331;SDS011;4203;48.144;14.118;2023-04-16T16:40:27;3.45;;;3.25;;
8331;SDS011;4203;48.144;14.118;2023-04-16T16:42:57;3.22;;;3.03;;
8331;SDS011;4203;48.144;14.118;2023-04-16T16:45:27;3.80;;;3.55;;
8331;SDS011;4203;48.144;14.118;2023-04-16T16:47:57;3.75;;;3.55;;
8331;SDS011;4203;48.144;14.118;2023-04-16T16:50:30;3.50;;;3.30;;
8331;SDS011;4203;48.144;14.118;2023-04-16T16:53:03;3.72;;;3.53;;
8331;SDS011;4203;48.144;14.118;2023-04-16T16:55:32;3.93;;;3.63;;
8331;SDS011;4203;48.144;14.118;2023-04-16T16:58:02;3.47;;;3.28;;
8331;SDS011;4203;48.144;14.118;2023-04-16T17:00:35;3.65;;;3.45;;
8331;SDS011;4203;48.144;14.118;2023-04-16T17:03:05;3.40;;;3.20;;
8331;SDS011;4203;48.144;14.118;2023-04-16T17:05:35;3.33;;;3.13;;
8331;SDS011;4203;48.144;14.118;2023-04-16T17:08:05;3.35;;;3.15;;
8331;SDS011;4203;48.144;14.118;2023-04-16T17:10:34;3.50;;;3.30;;
8331;SDS011;4203;48.144;14.118;2023-04-16T17:13:03;3.47;;;3.20;;
8331;SDS011;4203;48.144;14.118;2023-04-16T17:15:35;3.00;;;2.90;;
8331;SDS011;4203;48.144;14.118;2023-04-16T17:18:05;2.83;;;2.63;;
8331;SDS011;4203;48.144;14.118;2023-04-16T17:20:37;3.73;;;3.43;;
8331;SDS011;4203;48.144;14.118;2023-04-16T17:23:07;3.30;;;3.10;;
8331;SDS011;4203;48.144;14.118;2023-04-16T17:25:36;3.43;;;3.23;;